sim
Sign-in with your pilot id or email,
or register
Callsign
Passwort

Schedule Details

Flight Number: DLH1662
Departure: Munich Airport (EDDM) at 20:50
Arrival: Timisoara Traian Vuia International Airport (LRTR) at 22:15
Route: Lufthansa Passenger Schedule. Enter filed route here before submitting Pirep.

Weather Information
Getting current METAR information for EDDM 181250Z 07010KT 020V120 CAVOK 19/09 Q1024 NOSIG
Getting current METAR information for LRTR 181230Z 35014KT 310V020 CAVOK 23/04 Q1021

Schedule Frequency

Route Map